createdAt,value
2022-10-12T00:04:38.727Z,35.45
2022-10-12T00:09:42.450Z,34.53
2022-10-12T00:14:47.080Z,26.42
2022-10-12T00:19:51.926Z,37.72
2022-10-12T00:24:55.252Z,36.92
2022-10-12T00:29:59.929Z,35.80
2022-10-12T00:35:03.904Z,32.80
2022-10-12T00:40:08.338Z,30.27
2022-10-12T00:45:13.282Z,32.33
2022-10-12T00:50:20.754Z,32.75
2022-10-12T00:55:26.397Z,32.28
2022-10-12T01:00:31.147Z,32.17
2022-10-12T01:05:34.793Z,31.15
2022-10-12T01:10:38.400Z,36.47
2022-10-12T01:15:50.909Z,36.65
2022-10-12T01:21:05.952Z,36.37
2022-10-12T01:26:35.625Z,31.48
2022-10-12T01:31:45.493Z,34.95
2022-10-12T01:36:55.409Z,34.03
2022-10-12T01:42:04.265Z,34.67
2022-10-12T01:47:09.974Z,33.58
2022-10-12T01:52:28.030Z,30.27
2022-10-12T01:57:40.124Z,30.90
2022-10-12T02:02:54.012Z,34.42
2022-10-12T02:08:03.104Z,33.83
2022-10-12T02:13:09.455Z,33.17
2022-10-12T02:18:18.535Z,33.70
2022-10-12T02:23:24.806Z,27.00
2022-10-12T02:28:30.592Z,30.45
2022-10-12T02:33:40.097Z,32.08
2022-10-12T02:38:50.710Z,31.45
2022-10-12T02:43:58.861Z,34.10
2022-10-12T02:49:05.434Z,25.67
2022-10-12T02:54:09.434Z,30.55
2022-10-12T02:59:13.583Z,32.05
2022-10-12T03:04:18.314Z,26.00
2022-10-12T03:09:21.845Z,34.97
2022-10-12T03:14:26.916Z,28.15
2022-10-12T03:19:31.667Z,29.83
2022-10-12T03:24:35.024Z,30.40
2022-10-12T03:29:38.328Z,29.92
2022-10-12T03:34:43.279Z,24.38
2022-10-12T03:39:47.289Z,27.27
2022-10-12T03:44:51.500Z,28.00
2022-10-12T03:49:56.225Z,32.67
2022-10-12T03:54:59.502Z,33.20
2022-10-12T04:00:03.386Z,28.80
2022-10-12T04:05:09.081Z,27.25
2022-10-12T04:10:12.416Z,28.50
2022-10-12T04:15:18.192Z,29.27
2022-10-12T04:20:22.946Z,25.08
2022-10-12T04:25:30.061Z,23.73
2022-10-12T04:30:34.068Z,27.25
2022-10-12T04:35:38.706Z,28.38
2022-10-12T04:40:42.013Z,28.00
2022-10-12T04:45:45.558Z,29.15
2022-10-12T04:50:50.258Z,30.23
2022-10-12T04:55:53.824Z,30.23
2022-10-12T05:00:57.497Z,28.30
2022-10-12T05:06:02.200Z,33.65
2022-10-12T05:11:05.961Z,30.98
2022-10-12T05:16:09.330Z,31.58
2022-10-12T05:21:14.039Z,32.13
2022-10-12T05:26:17.651Z,32.33
2022-10-12T05:31:22.429Z,41.88
2022-10-12T05:36:27.166Z,37.83
2022-10-12T05:41:30.629Z,44.08
2022-10-12T05:46:33.965Z,41.92
2022-10-12T05:51:40.538Z,34.45
2022-10-12T05:56:44.145Z,35.70
2022-10-12T06:01:48.276Z,35.65
2022-10-12T06:06:53.060Z,37.30
2022-10-12T06:11:56.743Z,33.70
2022-10-12T06:17:00.177Z,37.67
2022-10-12T06:22:05.207Z,38.05
2022-10-12T06:27:08.545Z,36.83
2022-10-12T06:32:11.869Z,36.83
2022-10-12T06:37:44.417Z,32.58
2022-10-12T06:42:40.884Z,32.05
2022-10-12T06:47:44.372Z,30.63
2022-10-12T06:52:49.436Z,32.30
2022-10-12T06:57:52.738Z,31.23
2022-10-12T07:02:55.998Z,37.60
2022-10-12T07:08:00.698Z,40.33
2022-10-12T07:13:04.035Z,39.05
2022-10-12T07:18:07.427Z,32.90
2022-10-12T07:23:12.114Z,41.72
2022-10-12T07:28:15.427Z,35.78
2022-10-12T07:33:18.799Z,35.53
2022-10-12T07:38:23.587Z,30.73
2022-10-12T07:43:26.945Z,34.05
2022-10-12T07:48:30.296Z,32.08
2022-10-12T07:53:36.756Z,34.40
2022-10-12T07:58:40.074Z,37.83
2022-10-12T08:03:43.902Z,33.08
2022-10-12T08:08:48.982Z,38.42
2022-10-12T08:13:52.358Z,37.38
2022-10-12T08:18:56.184Z,38.10
2022-10-12T08:24:01.229Z,32.42
2022-10-12T08:29:05.864Z,35.47
2022-10-12T08:34:09.742Z,31.40
2022-10-12T08:39:14.556Z,33.30
2022-10-12T08:44:37.037Z,39.35
2022-10-12T08:49:44.196Z,31.55
2022-10-12T08:54:52.374Z,34.65
2022-10-12T08:59:55.741Z,26.50
2022-10-12T09:05:03.134Z,28.40
2022-10-12T09:10:24.495Z,27.40
2022-10-12T09:15:32.774Z,27.45
2022-10-12T09:20:44.212Z,28.33
2022-10-12T09:25:50.220Z,29.65
2022-10-12T09:31:05.256Z,25.20
2022-10-12T09:36:11.526Z,24.55
2022-10-12T09:41:21.955Z,26.65
2022-10-12T09:46:34.327Z,26.92
2022-10-12T09:51:37.806Z,21.80
2022-10-12T09:56:44.773Z,29.52
2022-10-12T10:02:00.597Z,20.95
2022-10-12T10:07:20.644Z,22.98
2022-10-12T10:12:28.270Z,24.40
2022-10-12T10:17:34.776Z,16.52
2022-10-12T10:22:38.608Z,23.35
2022-10-12T10:27:43.272Z,19.27
2022-10-12T10:32:47.466Z,16.50
2022-10-12T10:37:54.017Z,21.40
2022-10-12T10:43:03.801Z,13.13
2022-10-12T10:48:10.681Z,14.95
2022-10-12T10:53:20.391Z,15.95
2022-10-12T10:58:31.353Z,13.82
2022-10-12T11:03:42.280Z,10.60
2022-10-12T11:08:47.476Z,11.35
2022-10-12T11:13:57.802Z,11.88
2022-10-12T11:19:07.408Z,12.93
2022-10-12T11:24:15.943Z,9.13
2022-10-12T11:29:21.374Z,12.00
2022-10-12T11:34:27.081Z,10.65
2022-10-12T11:39:35.966Z,6.20
2022-10-12T11:44:44.304Z,9.57
2022-10-12T11:49:54.017Z,18.02
2022-10-12T11:55:01.921Z,6.38
2022-10-12T12:00:18.239Z,12.60
2022-10-12T12:05:22.261Z,10.50
2022-10-12T12:10:45.319Z,17.65
2022-10-12T12:16:33.746Z,9.43
2022-10-12T12:22:10.450Z,7.10
2022-10-12T12:27:24.584Z,7.22
2022-10-12T12:32:41.292Z,8.10
2022-10-12T12:37:44.929Z,10.02
2022-10-12T12:42:49.761Z,9.30
2022-10-12T12:47:53.095Z,12.63
2022-10-12T12:53:05.118Z,14.52
2022-10-12T12:58:26.858Z,11.40
2022-10-12T13:04:09.439Z,7.20
2022-10-12T13:09:40.780Z,8.82
2022-10-12T13:15:06.579Z,11.95
2022-10-12T13:20:19.380Z,8.75
2022-10-12T13:25:29.634Z,13.48
2022-10-12T13:30:40.631Z,9.35
2022-10-12T13:35:49.688Z,6.72
2022-10-12T13:41:02.294Z,10.80
2022-10-12T13:46:08.711Z,11.85
2022-10-12T13:51:24.598Z,11.27
2022-10-12T13:56:31.885Z,5.28
2022-10-12T14:01:49.402Z,11.20
2022-10-12T14:06:58.096Z,8.80
2022-10-12T14:12:01.831Z,5.60
2022-10-12T14:17:08.452Z,7.20
2022-10-12T14:22:12.944Z,8.73
2022-10-12T14:27:24.182Z,5.32
2022-10-12T14:32:42.304Z,9.75
2022-10-12T14:37:46.717Z,6.97
2022-10-12T14:42:58.292Z,7.38
2022-10-12T14:48:05.053Z,7.65
2022-10-12T14:53:12.729Z,6.22
2022-10-12T14:58:17.904Z,7.80
2022-10-12T15:03:22.571Z,7.78
2022-10-12T15:08:26.543Z,11.90
2022-10-12T15:13:29.937Z,11.40
2022-10-12T15:18:34.806Z,15.40
2022-10-12T15:23:38.262Z,14.43
2022-10-12T15:28:43.183Z,11.10
2022-10-12T15:33:48.050Z,11.05
2022-10-12T15:38:51.665Z,8.30
2022-10-12T15:43:54.970Z,9.32
2022-10-12T15:49:00.138Z,13.18
2022-10-12T15:54:03.445Z,12.85
2022-10-12T15:59:07.144Z,11.80
2022-10-12T16:04:15.530Z,14.10
2022-10-12T16:09:22.176Z,13.93
2022-10-12T16:14:25.433Z,12.05
2022-10-12T16:19:30.120Z,15.85
2022-10-12T16:24:33.374Z,12.93
2022-10-12T16:29:37.298Z,18.27
2022-10-12T16:34:42.594Z,19.02
2022-10-12T16:39:46.143Z,18.70
2022-10-12T16:44:49.684Z,16.60
2022-10-12T16:49:54.854Z,18.90
2022-10-12T16:54:58.164Z,16.77
2022-10-12T17:00:01.566Z,29.33
2022-10-12T17:05:07.285Z,33.55
2022-10-12T17:10:11.185Z,24.08
2022-10-12T17:15:14.560Z,19.38
2022-10-12T17:20:19.593Z,19.60
2022-10-12T17:25:22.917Z,26.08
2022-10-12T17:30:26.271Z,20.40
2022-10-12T17:35:31.087Z,28.95
2022-10-12T17:40:34.770Z,24.92
2022-10-12T17:45:40.653Z,29.75
2022-10-12T17:50:45.350Z,28.35
2022-10-12T17:55:49.164Z,27.85
2022-10-12T18:00:52.684Z,27.58
2022-10-12T18:06:02.887Z,36.13
2022-10-12T18:11:07.895Z,39.20
2022-10-12T18:16:12.793Z,34.15
2022-10-12T18:21:19.164Z,27.10
2022-10-12T18:26:23.115Z,25.80
2022-10-12T18:31:27.581Z,31.85
2022-10-12T18:36:32.480Z,37.20
2022-10-12T18:41:36.087Z,34.10
2022-10-12T18:46:39.666Z,40.45
2022-10-12T18:51:47.903Z,31.45
2022-10-12T18:56:51.240Z,42.58
2022-10-12T19:01:54.980Z,46.33
2022-10-12T19:06:59.645Z,42.83
2022-10-12T19:12:03.027Z,43.33
2022-10-12T19:17:06.472Z,36.08
2022-10-12T19:22:11.731Z,36.15
2022-10-12T19:27:15.371Z,32.35
2022-10-12T19:32:18.985Z,28.65
2022-10-12T19:37:24.506Z,28.13
2022-10-12T19:42:28.850Z,24.33
2022-10-12T19:47:32.346Z,25.27
2022-10-12T19:52:37.734Z,23.70
2022-10-12T19:57:43.386Z,21.55
2022-10-12T20:02:46.771Z,24.35
2022-10-12T20:07:51.545Z,26.67
2022-10-12T20:12:55.369Z,27.80
2022-10-12T20:17:58.717Z,24.27
2022-10-12T20:23:03.349Z,25.90
2022-10-12T20:28:06.883Z,24.77
2022-10-12T20:33:11.033Z,22.98
2022-10-12T20:38:15.815Z,26.45
2022-10-12T20:43:19.134Z,24.75
2022-10-12T20:48:22.931Z,23.02
2022-10-12T20:53:27.886Z,24.83
2022-10-12T20:58:31.191Z,25.60
2022-10-12T21:03:35.682Z,32.20
2022-10-12T21:08:41.114Z,28.23
2022-10-12T21:13:46.012Z,21.55
2022-10-12T21:18:49.632Z,26.52
2022-10-12T21:23:56.358Z,24.92
2022-10-12T21:29:00.590Z,24.95
2022-10-12T21:34:06.473Z,34.63
2022-10-12T21:39:14.167Z,41.75
2022-10-12T21:44:17.508Z,43.33
2022-10-12T21:49:20.827Z,30.85
2022-10-12T21:54:25.717Z,35.22
2022-10-12T21:59:29.049Z,32.30
2022-10-12T22:04:32.404Z,38.10
2022-10-12T22:09:37.075Z,31.55
2022-10-12T22:14:40.463Z,32.97
2022-10-12T22:19:43.930Z,31.58
2022-10-12T22:24:48.690Z,29.73
2022-10-12T22:29:51.967Z,30.40
2022-10-12T22:34:55.585Z,30.98
2022-10-12T22:40:00.417Z,27.25
2022-10-12T22:45:03.742Z,31.33
2022-10-12T22:50:07.835Z,32.20
2022-10-12T22:55:12.548Z,34.85
2022-10-12T23:00:17.127Z,33.80
2022-10-12T23:05:20.919Z,30.65
2022-10-12T23:10:25.991Z,27.30
2022-10-12T23:15:29.289Z,28.60
2022-10-12T23:20:32.577Z,27.70
2022-10-12T23:25:37.292Z,28.27
2022-10-12T23:30:40.858Z,34.13
2022-10-12T23:35:44.178Z,35.30
2022-10-12T23:40:48.790Z,32.85
2022-10-12T23:45:52.075Z,33.30
2022-10-12T23:50:55.701Z,28.98
2022-10-12T23:56:00.792Z,29.10
